Time;durP1;ratioP1;P1;durP2;ratioP2;P2;SDS_P1;SDS_P2;PMS_P1;PMS_P2;Temp;Humidity;BMP_temperature;BMP_pressure;BME280_temperature;BME280_humidity;BME280_pressure;Samples;Min_cycle;Max_cycle;Signal;HPM_P1;HPM_P2
2022/04/22 17:52:46;;;;;;;10.50;6.60;;;19.20;74.00;;;;;;5097604;27;20551;-68
2022/04/22 17:55:11;;;;;;;7.60;7.00;;;19.10;75.30;;;;;;5081400;28;20431;-70
2022/04/22 17:57:38;;;;;;;7.53;6.83;;;19.30;74.20;;;;;;5082660;28;20180;-70
2022/04/22 18:00:05;;;;;;;7.00;6.30;;;19.60;74.10;;;;;;5080342;28;20176;-70
2022/04/22 18:02:30;;;;;;;9.03;8.10;;;19.80;73.60;;;;;;5081494;28;20412;-71
2022/04/22 18:04:56;;;;;;;7.73;6.87;;;19.90;73.70;;;;;;5081817;28;20416;-71
2022/04/22 18:07:22;;;;;;;8.00;7.17;;;19.90;72.80;;;;;;5081605;28;20177;-70
2022/04/22 18:09:49;;;;;;;8.00;7.00;;;19.80;74.20;;;;;;5081158;28;20184;-71
2022/04/22 18:12:16;;;;;;;7.40;6.70;;;19.80;74.30;;;;;;5078649;28;20433;-71
2022/04/22 18:17:26;;;;;;;9.70;6.10;;;20.10;76.50;;;;;;5081404;28;20525;-71
2022/04/22 18:19:51;;;;;;;7.03;6.40;;;20.10;76.90;;;;;;5080670;28;21030;-71
2022/04/22 18:22:17;;;;;;;15.73;14.20;;;20.00;78.00;;;;;;5081004;28;20170;-70
2022/04/22 18:24:43;;;;;;;8.60;7.37;;;19.90;78.60;;;;;;5080683;28;20201;-70
2022/04/22 18:27:08;;;;;;;10.63;7.87;;;19.60;79.60;;;;;;5080567;28;20265;-71
2022/04/22 18:29:34;;;;;;;9.83;8.90;;;19.30;80.50;;;;;;5079573;28;20524;-71
2022/04/22 18:32:01;;;;;;;9.23;8.20;;;19.10;82.00;;;;;;5080213;28;20280;-71
2022/04/22 18:34:27;;;;;;;11.63;10.53;;;19.00;81.00;;;;;;5079972;28;20178;-69
2022/04/22 18:36:53;;;;;;;11.97;10.77;;;18.80;82.50;;;;;;5080338;28;20869;-71
2022/04/22 18:39:19;;;;;;;10.77;9.77;;;18.70;84.00;;;;;;5080375;28;20403;-70
2022/04/22 18:41:46;;;;;;;12.30;10.77;;;18.60;84.90;;;;;;5080357;28;20187;-71
2022/04/22 18:44:12;;;;;;;12.83;11.50;;;18.60;86.00;;;;;;5080316;28;20232;-69
2022/04/22 18:46:38;;;;;;;14.60;11.30;;;18.50;85.50;;;;;;5078800;28;20443;-68
2022/04/22 18:49:05;;;;;;;10.53;9.43;;;18.40;86.30;;;;;;5080322;28;20789;-69
2022/04/22 18:51:31;;;;;;;13.17;11.67;;;18.20;85.90;;;;;;5080125;28;20300;-69
2022/04/22 18:53:57;;;;;;;11.87;10.67;;;18.10;86.00;;;;;;5080095;28;20506;-69
2022/04/22 18:56:23;;;;;;;12.07;10.97;;;18.20;86.70;;;;;;5083813;28;20198;-69
2022/04/22 18:58:48;;;;;;;11.17;10.07;;;18.30;86.80;;;;;;5089526;28;20172;-69
2022/04/22 19:01:14;;;;;;;11.90;10.80;;;18.40;87.30;;;;;;5072044;28;20214;-70
2022/04/22 19:03:40;;;;;;;12.60;11.30;;;18.40;86.70;;;;;;5073827;28;20197;-69
2022/04/22 19:06:06;;;;;;;11.47;10.37;;;18.30;87.20;;;;;;5076638;28;20205;-69
2022/04/22 19:08:31;;;;;;;12.67;11.37;;;18.10;88.30;;;;;;5075936;28;20888;-69
2022/04/22 19:10:58;;;;;;;10.43;9.47;;;18.20;88.70;;;;;;5075299;28;20231;-69
2022/04/22 19:13:23;;;;;;;8.93;7.93;;;18.10;88.10;;;;;;5075395;28;20165;-69
2022/04/22 19:15:51;;;;;;;8.73;7.80;;;17.90;86.70;;;;;;5074516;28;20406;-69
2022/04/22 19:18:18;;;;;;;10.50;8.07;;;17.80;87.90;;;;;;5075597;28;20166;-69
2022/04/22 19:20:44;;;;;;;8.43;7.60;;;17.90;88.10;;;;;;5056377;28;20778;-69
2022/04/22 19:23:10;;;;;;;8.40;7.60;;;17.80;89.20;;;;;;5055257;28;20500;-69
2022/04/22 19:25:41;;;;;;;9.07;8.33;;;17.80;89.10;;;;;;5054220;28;21047;-68
2022/04/22 19:28:08;;;;;;;8.93;8.13;;;17.80;89.80;;;;;;5055054;28;20564;-69
2022/04/22 19:30:36;;;;;;;9.27;8.30;;;17.80;89.80;;;;;;5054660;28;20429;-69
2022/04/22 19:33:03;;;;;;;11.10;10.10;;;17.60;90.20;;;;;;5055593;28;20750;-69
2022/04/22 19:35:30;;;;;;;10.40;9.30;;;17.40;90.20;;;;;;5054828;28;20417;-69
2022/04/22 19:40:50;;;;;;;11.17;9.90;;;17.50;90.50;;;;;;5054944;28;20473;-68
2022/04/22 19:43:21;;;;;;;9.93;8.90;;;17.40;90.10;;;;;;5054297;28;20435;-68
2022/04/22 19:45:55;;;;;;;8.70;7.90;;;17.40;90.50;;;;;;5056068;28;20448;-69
2022/04/22 19:48:21;;;;;;;10.13;8.77;;;17.50;91.00;;;;;;5055800;28;20462;-69
2022/04/22 19:50:48;;;;;;;8.70;7.90;;;17.40;90.90;;;;;;5055078;28;20464;-68
2022/04/22 19:53:14;;;;;;;9.90;8.90;;;17.40;90.90;;;;;;5054608;28;20433;-67
2022/04/22 19:55:41;;;;;;;9.67;8.87;;;17.20;90.70;;;;;;5054668;28;20424;-67
2022/04/22 19:58:09;;;;;;;10.87;9.80;;;17.20;91.30;;;;;;5054822;28;20912;-68
2022/04/22 20:00:40;;;;;;;14.87;13.03;;;16.70;91.10;;;;;;5053529;28;20420;-69
2022/04/22 20:03:06;;;;;;;10.90;9.80;;;16.60;92.20;;;;;;5054631;28;20768;-69
2022/04/22 20:05:33;;;;;;;10.83;9.73;;;16.50;92.40;;;;;;5053421;28;20537;-69
2022/04/22 20:07:58;;;;;;;10.10;9.20;;;16.30;93.10;;;;;;5054668;28;20902;-68
2022/04/22 20:10:24;;;;;;;9.90;9.00;;;16.30;93.50;;;;;;5054608;28;20408;-69
2022/04/22 20:12:51;;;;;;;10.53;9.43;;;16.30;93.90;;;;;;5053535;28;20181;-68
2022/04/22 20:15:17;;;;;;;9.03;8.30;;;16.20;94.10;;;;;;5053691;28;20428;-69
2022/04/22 20:17:43;;;;;;;10.60;9.60;;;16.10;94.40;;;;;;5053640;28;20903;-69
2022/04/22 20:20:10;;;;;;;10.23;9.03;;;16.30;94.50;;;;;;5053880;28;20487;-69
2022/04/22 20:22:36;;;;;;;10.20;9.30;;;16.20;94.40;;;;;;5053692;28;20181;-68
2022/04/22 20:25:02;;;;;;;10.47;9.47;;;16.30;94.70;;;;;;5053138;28;20482;-69
2022/04/22 20:27:28;;;;;;;11.23;10.13;;;16.30;94.80;;;;;;5054528;28;20802;-69
2022/04/22 20:29:53;;;;;;;10.67;9.70;;;16.20;95.20;;;;;;5053558;28;20422;-68
2022/04/22 20:32:19;;;;;;;12.20;11.10;;;15.90;95.50;;;;;;5054086;28;20200;-68
2022/04/22 20:42:58;;;;;;;14.30;13.00;;;15.70;95.70;;;;;;5053438;28;20421;-68
2022/04/22 20:45:24;;;;;;;12.20;11.07;;;15.70;95.60;;;;;;5053049;28;20508;-68
2022/04/22 20:47:49;;;;;;;14.67;13.20;;;15.70;95.90;;;;;;5053930;28;20803;-68
2022/04/22 20:50:15;;;;;;;15.33;13.70;;;15.80;95.80;;;;;;5052596;28;20196;-68
2022/04/22 20:53:47;;;;;;;13.77;12.47;;;15.80;95.60;;;;;;5052086;28;20208;-68
2022/04/22 20:55:27;;;;;;;14.83;13.37;;;15.70;96.00;;;;;;5053078;28;20216;-68
2022/04/22 20:57:52;;;;;;;14.13;12.77;;;15.70;96.20;;;;;;5050854;28;20454;-67
2022/04/22 21:00:19;;;;;;;13.97;12.43;;;15.80;96.10;;;;;;5061589;28;20239;-67
2022/04/22 21:02:45;;;;;;;14.10;12.90;;;15.90;96.20;;;;;;5064881;28;20596;-67
2022/04/22 21:05:12;;;;;;;14.37;13.17;;;15.80;96.10;;;;;;5053007;28;20435;-67
2022/04/22 21:07:37;;;;;;;15.20;13.90;;;15.80;96.40;;;;;;5053255;28;20776;-67
2022/04/22 21:10:04;;;;;;;15.47;13.93;;;15.60;96.70;;;;;;5052086;28;20424;-68
2022/04/22 21:12:29;;;;;;;14.77;13.17;;;15.60;96.80;;;;;;5053047;28;20197;-67
2022/04/22 21:14:55;;;;;;;15.87;14.50;;;15.60;97.00;;;;;;5053376;28;20404;-67
2022/04/22 21:17:20;;;;;;;18.50;15.50;;;15.40;97.10;;;;;;5053585;28;20171;-68
2022/04/22 21:19:46;;;;;;;14.70;13.50;;;15.30;97.30;;;;;;5053602;28;20170;-67
2022/04/22 21:22:12;;;;;;;17.10;15.47;;;15.20;97.60;;;;;;5053491;28;20176;-67
2022/04/22 21:24:37;;;;;;;16.40;15.00;;;15.20;97.80;;;;;;5052709;28;20166;-67
2022/04/22 21:27:03;;;;;;;15.97;14.67;;;15.10;98.10;;;;;;5053375;28;20194;-67
2022/04/22 21:29:29;;;;;;;15.87;14.47;;;15.10;98.20;;;;;;5061896;28;20266;-67
2022/04/22 21:31:55;;;;;;;15.97;14.47;;;15.10;98.60;;;;;;5060550;28;20455;-67
2022/04/22 21:34:21;;;;;;;16.97;15.30;;;15.20;98.50;;;;;;5053952;28;20421;-67
2022/04/22 21:36:46;;;;;;;17.27;15.80;;;15.20;98.60;;;;;;5052805;28;20194;-67
2022/04/22 21:39:13;;;;;;;15.23;13.73;;;15.20;98.60;;;;;;5052583;28;20172;-67
2022/04/22 21:41:41;;;;;;;15.60;13.90;;;15.20;98.80;;;;;;5052888;28;20175;-67
2022/04/22 21:44:07;;;;;;;14.87;13.57;;;15.20;99.10;;;;;;5052634;28;20957;-67
2022/04/22 21:46:32;;;;;;;15.90;14.50;;;15.20;99.30;;;;;;5053356;28;20425;-67
2022/04/22 21:48:58;;;;;;;17.13;15.53;;;15.00;99.80;;;;;;5052677;28;20170;-67
2022/04/22 21:51:23;;;;;;;16.90;15.40;;;15.00;99.90;;;;;;5052821;28;20519;-67
2022/04/22 21:53:49;;;;;;;17.40;15.80;;;14.90;99.90;;;;;;5052894;28;20171;-67
2022/04/22 21:56:14;;;;;;;16.23;14.73;;;14.90;99.90;;;;;;5052501;28;20716;-69
2022/04/22 21:58:40;;;;;;;15.17;13.87;;;14.80;99.90;;;;;;5052608;28;20214;-68
2022/04/22 22:01:06;;;;;;;17.30;15.70;;;14.70;99.90;;;;;;5051101;28;20198;-68
2022/04/22 22:03:31;;;;;;;17.07;15.57;;;14.80;99.90;;;;;;5059387;28;20178;-68
2022/04/22 22:05:57;;;;;;;16.07;14.67;;;14.80;99.90;;;;;;5061510;28;20305;-68
2022/04/22 22:08:24;;;;;;;17.20;15.53;;;14.80;99.90;;;;;;5052818;28;20583;-67
2022/04/22 22:11:11;;;;;;;17.93;16.30;;;14.80;99.90;;;;;;5053053;28;20762;-68
2022/04/22 22:13:38;;;;;;;17.27;15.57;;;14.60;99.90;;;;;;5053258;28;20388;-67
2022/04/22 22:16:07;;;;;;;16.50;15.07;;;14.50;99.90;;;;;;5053387;22;20839;-67
2022/04/22 22:18:33;;;;;;;18.00;16.30;;;14.40;99.90;;;;;;5031728;28;20444;-68
2022/04/22 22:20:59;;;;;;;18.10;16.50;;;14.40;99.90;;;;;;5032776;28;20791;-67
2022/04/22 22:23:26;;;;;;;16.77;15.23;;;14.40;99.90;;;;;;5031369;28;20931;-67
2022/04/22 22:25:51;;;;;;;18.23;16.30;;;14.20;99.90;;;;;;5046330;28;20560;-67
2022/04/22 22:28:17;;;;;;;18.07;16.47;;;14.10;99.90;;;;;;5052528;28;20911;-69
2022/04/22 22:30:44;;;;;;;17.67;15.83;;;14.10;99.90;;;;;;5052127;28;20229;-67
2022/04/22 22:33:10;;;;;;;16.67;15.07;;;13.90;99.90;;;;;;5052325;28;20163;-67
2022/04/22 22:35:36;;;;;;;18.40;16.80;;;13.80;99.90;;;;;;5052413;28;20517;-67
2022/04/22 22:38:02;;;;;;;19.13;17.33;;;13.70;99.90;;;;;;5052270;28;20480;-68
2022/04/22 22:40:27;;;;;;;22.00;19.90;;;13.70;99.90;;;;;;5056391;28;20171;-68
2022/04/22 22:42:53;;;;;;;19.90;18.10;;;13.70;99.90;;;;;;5056387;28;20171;-68
2022/04/22 22:45:19;;;;;;;21.43;19.43;;;13.70;99.90;;;;;;5055760;28;20567;-68
2022/04/22 22:47:44;;;;;;;20.10;18.30;;;13.60;99.90;;;;;;5055935;28;20480;-68
2022/04/22 22:50:10;;;;;;;18.37;16.57;;;13.60;99.90;;;;;;5056240;28;20167;-68
2022/04/22 22:52:36;;;;;;;20.53;18.27;;;13.50;99.90;;;;;;5056022;28;20192;-68
2022/04/22 22:55:02;;;;;;;18.23;16.60;;;13.50;99.90;;;;;;5055708;28;20424;-68
2022/04/22 22:57:27;;;;;;;18.17;16.43;;;13.50;99.90;;;;;;5055354;28;20541;-68
2022/04/22 22:59:53;;;;;;;20.17;18.17;;;13.60;99.90;;;;;;5058001;28;20255;-69
2022/04/22 23:02:20;;;;;;;18.93;17.13;;;13.50;99.90;;;;;;5056129;28;20204;-68
2022/04/22 23:04:47;;;;;;;21.20;19.10;;;13.40;99.90;;;;;;5068843;28;20668;-68
2022/04/22 23:07:16;;;;;;;19.00;17.30;;;13.30;99.90;;;;;;5067082;28;20900;-69
2022/04/22 23:09:45;;;;;;;19.50;17.57;;;13.30;99.90;;;;;;5051966;28;20426;-68
2022/04/22 23:12:15;;;;;;;18.43;16.67;;;13.20;99.90;;;;;;5055287;28;20449;-68
2022/04/22 23:14:45;;;;;;;19.67;17.87;;;13.20;99.90;;;;;;5054441;28;20603;-68
2022/04/22 23:17:16;;;;;;;20.03;18.13;;;13.20;99.90;;;;;;5054883;28;20445;-68
2022/04/22 23:19:42;;;;;;;19.70;17.80;;;13.00;99.90;;;;;;5055751;28;20390;-68
2022/04/22 23:22:09;;;;;;;20.50;18.43;;;12.80;99.90;;;;;;5055556;28;20496;-66
2022/04/22 23:24:37;;;;;;;20.27;18.40;;;12.80;99.90;;;;;;5055561;28;20435;-67
2022/04/22 23:27:04;;;;;;;19.30;17.40;;;12.70;99.90;;;;;;5053907;28;20470;-67
2022/04/22 23:29:29;;;;;;;18.80;16.93;;;12.70;99.90;;;;;;5055284;28;20401;-67
2022/04/22 23:31:55;;;;;;;19.93;18.13;;;12.80;99.90;;;;;;5054985;28;20500;-67
2022/04/22 23:34:20;;;;;;;21.30;19.20;;;12.80;99.90;;;;;;5055176;28;20213;-67
2022/04/22 23:36:46;;;;;;;20.30;18.30;;;12.70;99.90;;;;;;5055408;28;20603;-67
2022/04/22 23:39:12;;;;;;;20.43;18.43;;;12.70;99.90;;;;;;5055632;28;20263;-67
2022/04/22 23:41:37;;;;;;;22.20;20.17;;;12.70;99.90;;;;;;5055525;28;20167;-66
2022/04/22 23:44:03;;;;;;;20.83;18.73;;;12.60;99.90;;;;;;5055323;28;20198;-67
2022/04/22 23:46:29;;;;;;;18.73;16.73;;;12.60;99.90;;;;;;5055173;28;20195;-67
2022/04/22 23:48:54;;;;;;;19.00;17.20;;;12.60;99.90;;;;;;5055489;28;20446;-67
2022/04/22 23:51:23;;;;;;;18.73;16.83;;;12.60;99.90;;;;;;5054625;28;20219;-67
2022/04/22 23:53:51;;;;;;;21.33;18.20;;;12.70;99.90;;;;;;5054737;28;20175;-67
2022/04/22 23:56:17;;;;;;;18.43;16.73;;;12.80;99.90;;;;;;5054763;28;20482;-67
2022/04/22 23:58:43;;;;;;;19.67;17.70;;;12.80;99.90;;;;;;5054557;28;20913;-67
